This is the latest recevied weather packets stored in our database for station/object KM4CBK. If no packets are shown the sender has not sent any weather packets the latest 10 day(s).
| Time | Temp. | Humidity | Pressure | Rain* | Wind** | Luminosity | Snow |
|---|---|---|---|---|---|---|---|
| 1778073064 | 21.11° C | 93% | 1014.4 hPa | 0 mm | - | 98 W/m² | - |
| 1778072761 | 20.56° C | 94% | 1014.3 hPa | 0 mm | - | 93 W/m² | - |
| 1778072459 | 20.56° C | 95% | 1014.3 hPa | 0 mm | - | 89 W/m² | - |
| 1778072157 | 20.56° C | 96% | 1014.4 hPa | 0 mm | - | 49 W/m² | - |
| 1778071854 | 20.56° C | 96% | 1014.3 hPa | 0 mm | - | 49 W/m² | - |
| 1778071552 | 20.56° C | 96% | 1014.3 hPa | 0 mm | - | 24 W/m² | - |
| 1778071250 | 20.56° C | 96% | 1013.9 hPa | 0 mm | - | 53 W/m² | - |
| 1778070947 | 20.56° C | 96% | 1013.5 hPa | 0 mm | - | 73 W/m² | - |
| 1778070645 | 20° C | 97% | 1013.7 hPa | 0 mm | - | 70 W/m² | - |
| 1778070341 | 20° C | 97% | 1013.7 hPa | 0 mm | - | 54 W/m² | - |
| 1778070040 | 20° C | 97% | 1013.7 hPa | 0 mm | - | 32 W/m² | - |
| 1778069737 | 20° C | 98% | 1013.7 hPa | 0 mm | - | 44 W/m² | - |
| 1778069433 | 20° C | 98% | 1013 hPa | 0 mm | - | 50 W/m² | - |
| 1778069131 | 19.44° C | 99% | 1013.3 hPa | 0 mm | - | 43 W/m² | - |
| 1778068828 | 19.44° C | 99% | 1013.5 hPa | 0 mm | - | 35 W/m² | - |
| 1778068526 | 19.44° C | 99% | 1013.3 hPa | 0 mm | - | 27 W/m² | - |
| 1778068225 | 19.44° C | 99% | 1013.3 hPa | 0 mm | - | 24 W/m² | - |
| 1778067921 | 19.44° C | 99% | 1013.1 hPa | 0 mm | - | 24 W/m² | - |
| 1778067620 | 19.44° C | 99% | 1013.1 hPa | 0 mm | - | 17 W/m² | - |
| 1778067317 | 19.44° C | 99% | 1013 hPa | 0 mm | - | 17 W/m² | - |
| 1778067014 | 18.89° C | 99% | 1012.9 hPa | 0 mm | - | 16 W/m² | - |
| 1778066711 | 18.89° C | 99% | 1012.8 hPa | 0 mm | - | 12 W/m² | - |
| 1778066409 | 18.89° C | 99% | 1013 hPa | 0 mm | - | 5 W/m² | - |
| 1778066107 | 18.89° C | 99% | 1012.8 hPa | 0 mm | - | 5 W/m² | - |
| 1778065803 | 18.89° C | 99% | 1012.4 hPa | 0 mm | - | 2 W/m² | - |
* Rain latest hour (hover to see other rain measurements)
** Current wind speed in m/s (hover to see current wind gust speed)